Terminal Aerodrome Forecast
Issued by NWS Portland, OR

Home | Current Version | Previous Version | Text Only | Print | Product List | Glossary On
Versions: 1 2 3 4 5 6 7 8 9 10 11 12 13 14 15 16 17 18 19 20 21 22 23 24 25 26 27 28
000
FTUS46 KPQR 230523
TAFAST
TAF
KAST 230523Z 2306/2406 20015G25KT P6SM -RA SCT027 OVC060
      TEMPO 2306/2310 6SM -SHRA SCT015 BKN027
     FM231000 21011KT P6SM -SHRA SCT025 BKN050 BKN070
     FM231400 20010G20KT P6SM -SHRA BKN025 OVC040
     FM232000 23010KT P6SM -SHRA SCT035 BKN060=

USA.gov is the U.S. government's official web portal to all federal, state and local government web resources and services.